Time;durP1;ratioP1;P1;durP2;ratioP2;P2;SDS_P1;SDS_P2;PMS_P1;PMS_P2;Temp;Humidity;BMP_temperature;BMP_pressure;BME280_temperature;BME280_humidity;BME280_pressure;Samples;Min_cycle;Max_cycle;Signal;HPM_P1;HPM_P2
2022/08/26 00:01:32;;;;;;;17.35;9.32;;;;;;;22.50;99.03;99630.59;5087117;28;20484;-70
2022/08/26 00:03:59;;;;;;;16.13;9.88;;;;;;;22.41;100.00;99626.44;5091451;28;20086;-71
2022/08/26 00:06:25;;;;;;;15.82;9.93;;;;;;;22.37;100.00;99624.78;5091548;28;20052;-72
2022/08/26 00:08:51;;;;;;;16.55;9.70;;;;;;;22.22;100.00;99618.13;5080377;28;20461;-72
2022/08/26 00:11:17;;;;;;;15.50;9.88;;;;;;;22.18;100.00;99611.22;5071831;28;20406;-72
2022/08/26 00:13:42;;;;;;;20.48;11.05;;;;;;;22.12;100.00;99625.38;5071970;28;20112;-71
2022/08/26 00:16:09;;;;;;;22.63;10.75;;;;;;;21.99;100.00;99629.19;5071629;28;20149;-74
2022/08/26 00:18:36;;;;;;;17.83;10.48;;;;;;;21.88;100.00;99623.31;5072016;28;20024;-71
2022/08/26 00:21:02;;;;;;;21.63;11.20;;;;;;;21.80;100.00;99623.50;5071813;28;20510;-70
2022/08/26 00:23:28;;;;;;;19.35;11.77;;;;;;;21.72;100.00;99621.06;5072181;28;20025;-67
2022/08/26 00:25:54;;;;;;;23.98;12.00;;;;;;;21.64;100.00;99620.34;5069927;28;20040;-70
2022/08/26 00:28:20;;;;;;;20.77;10.73;;;;;;;21.44;100.00;99613.72;5072203;28;20024;-69
2022/08/26 00:30:47;;;;;;;22.13;11.20;;;;;;;21.24;100.00;99613.31;5071789;28;20055;-69
2022/08/26 00:33:14;;;;;;;22.67;10.77;;;;;;;21.23;100.00;99612.41;5071802;28;20043;-70
2022/08/26 00:35:40;;;;;;;17.98;11.35;;;;;;;21.24;100.00;99611.53;5071381;28;20055;-71
2022/08/26 00:38:07;;;;;;;17.27;10.40;;;;;;;21.23;100.00;99611.56;5071879;28;20056;-70
2022/08/26 00:40:41;;;;;;;18.83;10.05;;;;;;;21.26;100.00;99606.25;5071990;28;20475;-68
2022/08/26 00:43:07;;;;;;;20.08;9.95;;;;;;;21.32;100.00;99608.75;5071620;28;20028;-69
2022/08/26 00:45:39;;;;;;;16.70;9.32;;;;;;;21.28;100.00;99609.72;5071404;28;20509;-70
2022/08/26 00:48:07;;;;;;;19.33;9.52;;;;;;;21.42;100.00;99602.41;5071361;28;20077;-70
2022/08/26 00:50:37;;;;;;;15.88;10.07;;;;;;;21.57;100.00;99597.75;5071744;28;20097;-68
2022/08/26 00:53:20;;;;;;;20.80;10.68;;;;;;;21.70;100.00;99603.59;5071554;28;20024;-74
2022/08/26 00:55:53;;;;;;;13.73;9.45;;;;;;;21.67;100.00;99622.91;5071309;28;20043;-71
2022/08/26 00:58:19;;;;;;;15.77;9.90;;;;;;;21.49;100.00;99630.25;5071220;28;20550;-67
2022/08/26 01:00:45;;;;;;;18.55;9.57;;;;;;;21.28;100.00;99602.72;5071154;28;20525;-69
2022/08/26 01:03:11;;;;;;;21.23;10.18;;;;;;;21.55;100.00;99631.03;5071005;28;20021;-70
2022/08/26 01:05:39;;;;;;;16.65;10.10;;;;;;;21.63;100.00;99624.75;5071149;28;20039;-70
2022/08/26 01:08:05;;;;;;;12.98;9.80;;;;;;;21.67;100.00;99641.31;5071240;28;20111;-70
2022/08/26 01:10:30;;;;;;;15.80;10.30;;;;;;;21.71;100.00;99640.34;5070683;28;20132;-70
2022/08/26 01:13:08;;;;;;;24.23;10.90;;;;;;;21.71;100.00;99634.19;5071279;28;20027;-67
2022/08/26 01:15:38;;;;;;;19.00;11.32;;;;;;;21.87;100.00;99639.97;5070849;28;20021;-71
2022/08/26 01:18:05;;;;;;;16.38;10.40;;;;;;;21.87;100.00;99640.84;5071032;28;20027;-67
2022/08/26 01:21:04;;;;;;;19.20;11.60;;;;;;;21.87;100.00;99639.97;5071004;28;20034;-68
2022/08/26 01:23:38;;;;;;;18.52;12.23;;;;;;;21.79;100.00;99611.25;5070701;28;20399;-68
2022/08/26 01:26:33;;;;;;;20.05;12.02;;;;;;;21.95;100.00;99641.53;5071033;28;20478;-69
2022/08/26 01:29:01;;;;;;;21.73;11.48;;;;;;;22.08;100.00;99635.97;5070799;28;20024;-72
2022/08/26 01:31:34;;;;;;;21.42;11.20;;;;;;;22.17;100.00;99627.88;5071007;28;20039;-71
2022/08/26 01:34:14;;;;;;;16.10;10.95;;;;;;;21.92;100.00;99593.44;5070568;28;20029;-70
2022/08/26 01:36:40;;;;;;;20.52;11.80;;;;;;;22.12;100.00;99630.63;5070574;28;20032;-73
2022/08/26 01:39:07;;;;;;;19.08;11.15;;;;;;;22.14;100.00;99626.19;5070758;28;20483;-70
2022/08/26 01:41:34;;;;;;;21.48;10.48;;;;;;;21.68;100.00;99631.66;5070522;28;20068;-70
2022/08/26 01:44:01;;;;;;;21.55;11.82;;;;;;;21.58;100.00;99628.38;5070762;28;20111;-67
2022/08/26 01:46:29;;;;;;;20.10;11.52;;;;;;;21.29;100.00;99633.28;5070469;28;20028;-67
2022/08/26 01:48:58;;;;;;;21.90;11.82;;;;;;;21.00;100.00;99636.53;5070696;28;20024;-73
2022/08/26 01:51:26;;;;;;;20.85;12.05;;;;;;;21.14;100.00;99628.38;5070783;28;20028;-71
2022/08/26 01:53:52;;;;;;;18.38;11.07;;;;;;;21.07;100.00;99635.50;5070684;28;20029;-69
2022/08/26 01:56:20;;;;;;;17.20;10.98;;;;;;;20.40;100.00;99603.47;5070803;28;20058;-68
2022/08/26 01:58:59;;;;;;;21.95;10.93;;;;;;;20.67;100.00;99631.84;5070468;28;20123;-68
2022/08/26 02:01:25;;;;;;;21.42;10.90;;;;;;;20.72;100.00;99639.66;5070674;28;20113;-71
2022/08/26 02:04:17;;;;;;;26.20;10.95;;;;;;;20.67;100.00;99633.59;5070560;28;20035;-75
2022/08/26 02:06:44;;;;;;;20.08;11.00;;;;;;;20.73;100.00;99623.00;5070185;28;20493;-70
2022/08/26 02:09:10;;;;;;;23.88;11.95;;;;;;;20.81;100.00;99623.75;5070330;28;20050;-72
2022/08/26 02:11:37;;;;;;;17.98;9.90;;;;;;;20.87;100.00;99619.28;5051574;28;20106;-69
2022/08/26 02:14:16;;;;;;;23.77;10.65;;;;;;;20.91;100.00;99615.69;5070514;28;20028;-72
2022/08/26 02:16:45;;;;;;;19.05;9.32;;;;;;;21.00;100.00;99620.78;5070490;28;20072;-69
2022/08/26 02:19:15;;;;;;;18.20;9.50;;;;;;;21.09;100.00;99620.59;5070212;28;20522;-72
2022/08/26 02:21:42;;;;;;;20.67;9.68;;;;;;;21.16;100.00;99616.94;5071204;28;20068;-71
2022/08/26 02:24:15;;;;;;;20.10;9.25;;;;;;;21.23;100.00;99617.66;5074399;28;20035;-71
2022/08/26 02:26:42;;;;;;;20.83;9.77;;;;;;;21.28;100.00;99607.97;5074117;28;20090;-72
2022/08/26 02:29:15;;;;;;;21.70;9.27;;;;;;;21.25;100.00;99613.25;5074198;28;20441;-75
2022/08/26 02:31:40;;;;;;;22.52;10.35;;;;;;;21.32;100.00;99614.00;5073964;28;20383;-72
2022/08/26 02:34:12;;;;;;;18.30;10.27;;;;;;;21.35;100.00;99616.56;5074017;28;20025;-71
2022/08/26 02:36:38;;;;;;;20.60;9.43;;;;;;;21.23;100.00;99580.06;5073829;28;20042;-72
2022/08/26 02:39:03;;;;;;;19.23;9.90;;;;;;;21.49;100.00;99619.75;5056247;28;20108;-69
2022/08/26 02:41:29;;;;;;;21.35;9.95;;;;;;;21.46;100.00;99613.72;5056124;28;20111;-69
2022/08/26 02:43:54;;;;;;;17.95;9.57;;;;;;;21.34;100.00;99620.09;5074090;28;20032;-69
2022/08/26 02:46:20;;;;;;;16.83;9.27;;;;;;;21.07;100.00;99585.66;5074009;28;20577;-75
2022/08/26 02:48:45;;;;;;;16.70;8.88;;;;;;;21.14;100.00;99625.75;5073543;28;20127;-69
2022/08/26 02:51:11;;;;;;;17.17;9.50;;;;;;;21.17;100.00;99629.19;5073779;28;20024;-73
2022/08/26 02:53:36;;;;;;;22.75;9.57;;;;;;;21.23;100.00;99628.16;5073968;28;20085;-71
2022/08/26 02:56:06;;;;;;;19.33;8.82;;;;;;;21.38;100.00;99623.50;5073629;28;20024;-71
2022/08/26 02:58:32;;;;;;;23.00;9.07;;;;;;;21.52;99.58;99625.84;5073745;28;20035;-69
2022/08/26 03:00:58;;;;;;;18.40;8.25;;;;;;;21.54;99.43;99626.69;5073499;28;20603;-76
2022/08/26 03:03:24;;;;;;;24.52;9.27;;;;;;;21.37;99.64;99596.41;5073840;28;20024;-68
2022/08/26 03:05:50;;;;;;;17.42;9.32;;;;;;;21.57;99.06;99630.13;5073497;28;20079;-72
2022/08/26 03:08:16;;;;;;;16.60;8.70;;;;;;;21.65;98.57;99624.72;5073618;28;20107;-70
2022/08/26 03:10:41;;;;;;;16.52;8.73;;;;;;;21.61;98.76;99631.78;5073441;28;20103;-72
2022/08/26 03:13:10;;;;;;;17.20;8.77;;;;;;;21.52;99.60;99638.97;5073381;28;20028;-68
2022/08/26 03:15:35;;;;;;;22.15;9.82;;;;;;;21.39;99.50;99612.13;5073274;28;20075;-68
2022/08/26 03:18:01;;;;;;;17.05;9.77;;;;;;;21.68;99.41;99644.78;5073095;28;20044;-71
2022/08/26 03:20:27;;;;;;;18.88;9.82;;;;;;;21.77;99.63;99645.44;5073352;28;20532;-69
2022/08/26 03:22:52;;;;;;;21.27;11.48;;;;;;;21.84;99.72;99647.94;5073287;28;20052;-74
2022/08/26 03:25:20;;;;;;;17.35;10.55;;;;;;;21.69;99.24;99618.47;5072943;28;20060;-73
2022/08/26 03:27:46;;;;;;;17.27;10.93;;;;;;;21.67;99.60;99601.91;5072997;28;20494;-75
2022/08/26 03:32:57;;;;;;;19.05;11.43;;;;;;;21.57;100.00;99645.00;5073156;28;20043;-68
2022/08/26 03:35:24;;;;;;;20.58;11.80;;;;;;;21.62;100.00;99651.91;5072557;28;20024;-69
2022/08/26 03:37:51;;;;;;;19.85;12.55;;;;;;;21.50;100.00;99628.50;5072853;28;20021;-70
2022/08/26 03:40:17;;;;;;;19.98;12.25;;;;;;;21.65;100.00;99662.34;5072827;28;20119;-69
2022/08/26 03:42:43;;;;;;;20.67;12.73;;;;;;;21.58;100.00;99658.13;5072829;28;20023;-68
2022/08/26 03:45:10;;;;;;;25.50;13.82;;;;;;;21.53;100.00;99661.72;5072658;28;20151;-71
2022/08/26 03:47:38;;;;;;;19.90;13.43;;;;;;;21.50;100.00;99660.00;5072621;28;20029;-71
2022/08/26 03:50:05;;;;;;;23.98;13.35;;;;;;;21.49;100.00;99666.16;5072611;28;20033;-72
2022/08/26 03:52:30;;;;;;;19.40;14.32;;;;;;;21.52;100.00;99665.22;5036963;28;20037;-69
2022/08/26 03:54:56;;;;;;;21.35;13.73;;;;;;;21.33;100.00;99634.97;5054671;28;20025;-72
2022/08/26 03:57:22;;;;;;;19.83;13.85;;;;;;;21.50;100.00;99665.25;5070398;28;20045;-72
2022/08/26 03:59:48;;;;;;;17.15;13.68;;;;;;;21.56;100.00;99675.69;5072399;28;20032;-68
2022/08/26 04:02:13;;;;;;;25.45;14.35;;;;;;;21.37;100.00;99640.16;5072538;28;20394;-69
2022/08/26 04:04:39;;;;;;;23.23;14.30;;;;;;;21.53;100.00;99675.69;5072287;28;20067;-69
2022/08/26 04:07:04;;;;;;;24.40;14.88;;;;;;;21.58;100.00;99673.00;5072205;28;20021;-69
2022/08/26 04:09:30;;;;;;;19.55;13.63;;;;;;;21.62;100.00;99675.53;5072260;28;20029;-71
2022/08/26 04:11:57;;;;;;;16.38;12.55;;;;;;;21.61;100.00;99675.59;5072202;28;20035;-72
2022/08/26 04:14:25;;;;;;;23.83;14.27;;;;;;;21.58;100.00;99680.88;5072020;28;20143;-72
2022/08/26 04:16:52;;;;;;;24.13;14.00;;;;;;;21.59;100.00;99685.25;5072548;28;20093;-72
2022/08/26 04:19:19;;;;;;;21.27;13.25;;;;;;;21.57;100.00;99680.03;5072091;28;20032;-69
2022/08/26 04:21:45;;;;;;;31.67;14.20;;;;;;;21.61;100.00;99676.44;5071682;28;20021;-72
2022/08/26 04:24:14;;;;;;;26.48;14.25;;;;;;;21.74;100.00;99697.19;5071881;28;20063;-72
2022/08/26 04:26:41;;;;;;;24.88;14.32;;;;;;;21.81;100.00;99694.41;5071844;28;20043;-75
2022/08/26 04:29:11;;;;;;;19.15;14.18;;;;;;;21.84;100.00;99703.13;5071694;28;20059;-69
2022/08/26 04:31:37;;;;;;;19.85;13.55;;;;;;;21.83;100.00;99701.38;5019414;28;20869;-68
2022/08/26 04:34:03;;;;;;;17.90;13.35;;;;;;;21.75;100.00;99702.41;5069623;28;20041;-68
2022/08/26 04:36:29;;;;;;;18.00;13.15;;;;;;;21.62;100.00;99698.31;5060325;28;20047;-70
2022/08/26 04:38:55;;;;;;;19.55;13.15;;;;;;;21.63;100.00;99697.41;5071144;28;20029;-73
2022/08/26 04:41:21;;;;;;;22.48;13.13;;;;;;;21.68;100.00;99686.81;5036330;28;20052;-71
2022/08/26 04:43:47;;;;;;;20.23;11.90;;;;;;;21.79;100.00;99690.06;5071318;28;21144;-69
2022/08/26 04:46:17;;;;;;;16.88;11.93;;;;;;;21.84;100.00;99695.25;5070905;28;20036;-72
2022/08/26 04:48:42;;;;;;;;;;;;;;;21.87;100.00;99698.66;5071797;28;20467;-69
2022/08/26 04:51:09;;;;;;;26.15;12.95;;;;;;;21.63;100.00;99676.41;5071404;28;19919;-68
2022/08/26 04:53:34;;;;;;;20.52;13.30;;;;;;;21.80;100.00;99707.56;5071282;28;20025;-72
2022/08/26 04:56:00;;;;;;;20.65;13.25;;;;;;;21.79;100.00;99701.47;5071342;28;20039;-71
2022/08/26 04:58:26;;;;;;;18.58;13.50;;;;;;;21.80;100.00;99705.78;5071546;28;20490;-75
2022/08/26 05:00:54;;;;;;;24.15;12.77;;;;;;;21.87;100.00;99706.56;5071473;28;20027;-72
2022/08/26 05:03:20;;;;;;;22.60;14.13;;;;;;;21.86;100.00;99714.44;5071409;28;20120;-71
2022/08/26 05:05:48;;;;;;;24.92;14.55;;;;;;;21.73;100.00;99696.34;5071282;28;20025;-72
2022/08/26 05:08:15;;;;;;;21.20;15.05;;;;;;;21.77;100.00;99719.00;5052599;28;20041;-69
2022/08/26 05:10:43;;;;;;;24.08;14.57;;;;;;;21.46;100.00;99708.25;5070917;28;20039;-72
2022/08/26 05:13:12;;;;;;;17.92;15.07;;;;;;;21.44;100.00;99716.13;5071321;28;20029;-70
2022/08/26 05:15:38;;;;;;;23.23;15.65;;;;;;;21.26;100.00;99720.00;5059814;28;20025;-71
2022/08/26 05:18:05;;;;;;;21.65;14.50;;;;;;;21.27;100.00;99727.00;5050803;28;20055;-69
2022/08/26 05:20:33;;;;;;;23.08;14.55;;;;;;;21.44;100.00;99724.00;5066493;28;20035;-70
2022/08/26 05:22:59;;;;;;;24.98;14.27;;;;;;;21.54;100.00;99726.47;5070550;28;20028;-68
2022/08/26 05:25:29;;;;;;;22.08;12.30;;;;;;;21.52;100.00;99738.75;5070588;28;20032;-69
2022/08/26 05:27:54;;;;;;;;;;;;;;;21.60;100.00;99739.53;5070954;28;20453;-67
2022/08/26 05:30:20;;;;;;;21.70;12.02;;;;;;;21.74;100.00;99744.47;5068040;28;19974;-67
2022/08/26 05:32:48;;;;;;;29.30;12.50;;;;;;;21.53;99.08;99682.72;5070521;28;20123;-70
2022/08/26 05:35:13;;;;;;;19.67;12.32;;;;;;;21.97;100.00;99744.84;5070394;28;20509;-69
2022/08/26 05:37:39;;;;;;;23.17;12.27;;;;;;;22.00;99.45;99729.94;5070347;28;20111;-67
2022/08/26 05:40:05;;;;;;;27.83;10.93;;;;;;;22.09;96.62;99738.47;5043030;28;20414;-64
2022/08/26 05:42:30;;;;;;;23.15;10.68;;;;;;;22.18;96.08;99739.16;5070055;28;20103;-67
2022/08/26 05:44:56;;;;;;;22.45;11.25;;;;;;;22.38;96.16;99731.72;5069607;28;20051;-66
2022/08/26 05:47:23;;;;;;;19.00;11.50;;;;;;;22.41;96.51;99734.25;5070468;28;20040;-72
2022/08/26 05:49:48;;;;;;;25.45;11.77;;;;;;;22.28;95.61;99719.63;5070392;28;20033;-66
2022/08/26 05:52:14;;;;;;;32.92;11.27;;;;;;;22.30;94.15;99741.50;5070301;28;20028;-66
2022/08/26 05:54:39;;;;;;;25.70;11.00;;;;;;;22.36;94.71;99735.25;5070441;28;20111;-69
2022/08/26 05:57:05;;;;;;;24.05;13.13;;;;;;;22.50;98.38;99746.31;5070400;28;20016;-66
2022/08/26 05:59:30;;;;;;;25.65;12.98;;;;;;;22.36;98.11;99719.47;5070454;28;20485;-68
2022/08/26 06:01:55;;;;;;;24.00;13.05;;;;;;;22.58;98.88;99743.50;5070357;28;20426;-65
2022/08/26 06:04:24;;;;;;;33.38;13.30;;;;;;;22.65;99.42;99738.97;5070245;28;20082;-65
2022/08/26 06:06:50;;;;;;;25.67;11.88;;;;;;;22.53;98.88;99709.44;5070177;28;20024;-68
2022/08/26 06:09:16;;;;;;;24.75;12.45;;;;;;;22.81;98.71;99755.25;5070292;28;20040;-70
2022/08/26 06:11:42;;;;;;;23.48;11.90;;;;;;;22.87;98.15;99749.84;5070495;28;20085;-66
2022/08/26 06:14:08;;;;;;;28.30;12.60;;;;;;;22.89;96.81;99753.28;5070217;28;20483;-65
2022/08/26 06:16:39;;;;;;;25.17;11.30;;;;;;;22.95;96.16;99753.13;5070083;28;20058;-69
2022/08/26 06:19:06;;;;;;;25.60;12.35;;;;;;;23.03;95.60;99756.44;5070197;28;20055;-65
2022/08/26 06:21:34;;;;;;;28.30;12.05;;;;;;;23.12;94.74;99759.72;5070039;28;20105;-72
2022/08/26 06:26:55;;;;;;;26.33;11.05;;;;;;;23.00;93.62;99760.91;5070048;28;20039;-69
2022/08/26 06:29:23;;;;;;;26.63;11.80;;;;;;;23.07;94.84;99757.22;5070138;28;20028;-70
2022/08/26 06:31:49;;;;;;;24.23;12.35;;;;;;;23.19;93.80;99759.56;5069969;28;20398;-72
2022/08/26 06:34:14;;;;;;;28.10;12.45;;;;;;;23.29;95.15;99765.44;5068016;28;20048;-69
2022/08/26 06:36:42;;;;;;;27.17;10.20;;;;;;;22.99;89.25;99722.31;5070059;28;20445;-71
2022/08/26 06:39:09;;;;;;;26.17;8.93;;;;;;;23.22;89.58;99766.50;5069995;28;20119;-68
2022/08/26 06:41:37;;;;;;;22.05;7.65;;;;;;;22.98;83.26;99745.16;5070047;28;20032;-71
2022/08/26 06:44:05;;;;;;;22.92;7.32;;;;;;;23.14;83.60;99774.59;5069702;28;20097;-68
2022/08/26 06:46:31;;;;;;;23.92;6.78;;;;;;;23.27;83.42;99776.00;5069772;28;20410;-70
2022/08/26 06:48:59;;;;;;;21.90;7.47;;;;;;;23.35;82.42;99770.56;5070116;28;20043;-69
2022/08/26 06:51:31;;;;;;;28.87;7.70;;;;;;;23.42;82.59;99768.59;5070024;28;20469;-70
2022/08/26 06:53:58;;;;;;;20.65;8.38;;;;;;;23.51;83.71;99762.22;5069946;28;20258;-73
2022/08/26 06:56:28;;;;;;;22.15;7.60;;;;;;;23.50;80.12;99781.56;5069647;28;20099;-69
2022/08/26 06:58:53;;;;;;;21.00;6.93;;;;;;;23.54;78.38;99775.28;5069567;28;20482;-70
2022/08/26 07:01:23;;;;;;;23.05;7.00;;;;;;;23.55;77.39;99772.63;5069688;28;20033;-68
2022/08/26 07:03:50;;;;;;;23.13;6.68;;;;;;;23.63;76.89;99774.16;5069968;28;20056;-72
2022/08/26 07:06:19;;;;;;;25.42;7.10;;;;;;;23.70;75.28;99773.97;5069923;28;20041;-67
2022/08/26 07:08:46;;;;;;;20.88;7.10;;;;;;;23.77;74.52;99781.69;5070314;28;20020;-67
2022/08/26 07:11:12;;;;;;;23.83;6.82;;;;;;;23.87;74.69;99767.34;5073402;28;20064;-70
2022/08/26 07:13:37;;;;;;;21.52;6.93;;;;;;;23.95;76.02;99775.06;5073100;28;20482;-67
2022/08/26 07:16:11;;;;;;;25.48;7.18;;;;;;;24.00;75.29;99781.03;5073377;28;20040;-70
2022/08/26 07:18:38;;;;;;;27.20;7.43;;;;;;;24.08;74.40;99784.31;5073256;28;20768;-71
2022/08/26 07:21:06;;;;;;;19.70;6.60;;;;;;;24.13;75.87;99784.19;5073018;28;20474;-70
2022/08/26 07:23:33;;;;;;;21.98;6.63;;;;;;;24.17;75.13;99780.56;5070562;28;20556;-70
2022/08/26 07:26:02;;;;;;;24.33;7.22;;;;;;;24.22;77.31;99776.00;5070314;28;20526;-66
2022/08/26 07:28:28;;;;;;;21.83;6.43;;;;;;;24.12;76.54;99764.84;5070597;28;20055;-70
2022/08/26 07:30:54;;;;;;;24.83;7.30;;;;;;;24.11;76.34;99747.31;5030623;28;20542;-71
2022/08/26 07:33:19;;;;;;;18.65;5.95;;;;;;;24.34;76.03;99786.16;5030448;28;20100;-68
2022/08/26 07:35:45;;;;;;;23.50;7.28;;;;;;;24.22;76.34;99746.97;5030472;28;20076;-70
2022/08/26 07:38:12;;;;;;;25.52;7.15;;;;;;;24.38;76.19;99776.38;5030614;28;20041;-69
2022/08/26 07:40:39;;;;;;;20.92;6.55;;;;;;;24.39;74.91;99767.56;5030124;28;20102;-66
2022/08/26 07:43:05;;;;;;;27.85;7.45;;;;;;;24.49;75.86;99778.69;5030478;28;20041;-70
2022/08/26 07:45:30;;;;;;;20.25;6.90;;;;;;;24.53;75.17;99777.69;5030232;28;20041;-66
2022/08/26 07:47:56;;;;;;;19.65;6.93;;;;;;;24.58;73.98;99773.13;5030367;28;20030;-69
2022/08/26 07:50:22;;;;;;;18.77;6.70;;;;;;;24.64;75.39;99778.19;5030180;28;20037;-67
2022/08/26 07:52:48;;;;;;;24.40;7.38;;;;;;;24.69;75.66;99778.09;5030238;28;20497;-66
2022/08/26 07:55:13;;;;;;;31.58;7.38;;;;;;;24.43;73.46;99726.97;5014543;28;20834;-69
2022/08/26 07:57:39;;;;;;;23.67;7.18;;;;;;;24.88;77.94;99778.31;5010435;28;20046;-66
2022/08/26 08:00:08;;;;;;;26.92;6.88;;;;;;;24.92;73.74;99774.66;5010334;28;20504;-69
2022/08/26 08:02:33;;;;;;;24.73;6.93;;;;;;;25.04;73.51;99766.31;5056349;28;20060;-69
2022/08/26 08:04:59;;;;;;;15.80;6.10;;;;;;;25.09;72.19;99767.97;5072287;28;20477;-66
2022/08/26 08:07:26;;;;;;;23.98;6.70;;;;;;;25.01;71.22;99745.31;5072226;28;20063;-70
2022/08/26 08:09:52;;;;;;;21.45;6.10;;;;;;;25.10;70.02;99751.22;5072074;28;20016;-69
2022/08/26 08:12:18;;;;;;;25.35;6.40;;;;;;;25.40;69.57;99770.41;5070052;28;20483;-68
2022/08/26 08:14:45;;;;;;;18.25;6.50;;;;;;;25.48;69.69;99775.41;5072279;28;20097;-68
2022/08/26 08:17:13;;;;;;;19.05;5.95;;;;;;;25.47;67.73;99768.41;5072277;28;20040;-68
2022/08/26 08:19:39;;;;;;;17.15;6.13;;;;;;;25.37;69.55;99770.50;5071167;28;20395;-69
2022/08/26 08:22:04;;;;;;;31.50;6.93;;;;;;;25.49;72.19;99772.72;5053101;28;20040;-72
2022/08/26 08:24:32;;;;;;;20.40;7.18;;;;;;;25.63;74.31;99751.09;5071730;28;20765;-69
2022/08/26 08:27:02;;;;;;;22.63;6.15;;;;;;;25.74;71.34;99757.75;5071908;28;20028;-67
2022/08/26 08:29:28;;;;;;;18.25;5.85;;;;;;;25.88;68.39;99767.81;5071729;28;20499;-69
2022/08/26 08:31:57;;;;;;;21.60;6.78;;;;;;;26.06;69.35;99758.34;5071378;28;20029;-72
2022/08/26 08:34:26;;;;;;;28.15;6.15;;;;;;;26.09;68.43;99755.56;5071579;28;20036;-69
2022/08/26 08:36:53;;;;;;;20.87;6.37;;;;;;;25.96;67.00;99734.84;5071517;28;20097;-66
2022/08/26 08:39:18;;;;;;;20.25;6.15;;;;;;;26.24;65.91;99751.47;5071756;28;20047;-66
2022/08/26 08:42:13;;;;;;;24.00;5.68;;;;;;;26.39;67.30;99756.13;5071728;28;20028;-70
2022/08/26 08:44:43;;;;;;;27.45;6.15;;;;;;;26.57;65.17;99746.59;5071563;28;20055;-67
2022/08/26 08:47:41;;;;;;;26.38;5.88;;;;;;;26.73;64.02;99745.94;5071419;28;20035;-70
2022/08/26 08:50:22;;;;;;;25.03;5.83;;;;;;;26.84;63.27;99740.25;5009387;28;20053;-67
2022/08/26 08:52:55;;;;;;;23.55;5.80;;;;;;;26.96;62.91;99740.56;5009403;28;20281;-69
2022/08/26 08:55:23;;;;;;;30.05;6.95;;;;;;;26.76;66.30;99712.31;5009278;28;20041;-68
2022/08/26 08:58:06;;;;;;;17.42;6.18;;;;;;;26.88;64.07;99734.75;5009106;28;20042;-69
2022/08/26 09:00:58;;;;;;;16.48;5.75;;;;;;;26.74;66.32;99735.34;5009239;28;20042;-66
2022/08/26 09:03:55;;;;;;;14.50;5.25;;;;;;;26.73;63.78;99735.34;5009399;28;20034;-71
2022/08/26 09:06:20;;;;;;;17.02;5.85;;;;;;;26.54;65.94;99733.47;5009242;28;20034;-69
2022/08/26 09:08:49;;;;;;;15.52;5.60;;;;;;;26.49;67.14;99732.81;5009072;28;20421;-69
2022/08/26 09:11:16;;;;;;;18.15;6.05;;;;;;;26.44;64.11;99725.06;5009158;28;20026;-69
2022/08/26 09:13:47;;;;;;;21.63;6.03;;;;;;;26.52;63.10;99730.06;5009033;28;20038;-69
2022/08/26 09:16:26;;;;;;;23.75;5.82;;;;;;;26.58;62.45;99727.16;5008916;28;20033;-69
2022/08/26 09:19:13;;;;;;;18.02;5.10;;;;;;;26.59;62.99;99728.88;5009121;28;20077;-67
2022/08/26 09:21:38;;;;;;;20.70;5.70;;;;;;;26.53;63.73;99738.84;5008858;28;20096;-66
2022/08/26 09:24:04;;;;;;;22.42;4.57;;;;;;;26.69;57.97;99733.78;5008763;28;20053;-71
2022/08/26 09:26:39;;;;;;;21.38;3.97;;;;;;;26.81;48.98;99728.00;5024989;28;20048;-70
2022/08/26 09:29:40;;;;;;;21.17;3.58;;;;;;;26.87;49.20;99722.44;5070893;28;20571;-70
2022/08/26 09:32:23;;;;;;;20.70;4.40;;;;;;;26.86;48.74;99726.00;5070065;28;20020;-71
2022/08/26 09:35:02;;;;;;;25.45;4.47;;;;;;;26.85;48.47;99732.22;5070568;28;20024;-69
2022/08/26 09:37:43;;;;;;;16.85;4.65;;;;;;;26.77;47.43;99729.06;5070485;28;20024;-68
2022/08/26 09:40:21;;;;;;;18.80;4.30;;;;;;;26.78;48.13;99736.06;5070748;28;20047;-69
2022/08/26 09:43:06;;;;;;;23.38;4.10;;;;;;;26.72;47.20;99729.22;5070891;28;20032;-70
2022/08/26 09:45:32;;;;;;;20.35;5.10;;;;;;;26.70;49.68;99736.34;5070064;28;20045;-69
2022/08/26 09:47:58;;;;;;;21.27;6.40;;;;;;;26.62;49.23;99720.78;5070396;28;20111;-69
2022/08/26 09:50:32;;;;;;;26.95;6.75;;;;;;;26.69;48.88;99737.28;5070686;28;20167;-72
2022/08/26 09:53:05;;;;;;;28.88;13.70;;;;;;;26.67;47.66;99743.56;5070545;28;20108;-68
2022/08/26 09:55:31;;;;;;;27.10;7.22;;;;;;;26.69;47.65;99745.22;5070438;28;20032;-70
2022/08/26 09:57:57;;;;;;;25.75;5.65;;;;;;;26.55;48.45;99734.34;5070243;28;20027;-69
2022/08/26 10:00:30;;;;;;;15.95;4.55;;;;;;;26.61;49.22;99744.69;5070390;28;20146;-70
2022/08/26 10:03:00;;;;;;;19.92;4.30;;;;;;;26.57;48.81;99746.59;5070488;28;20032;-66
2022/08/26 10:05:35;;;;;;;23.42;4.53;;;;;;;26.44;49.77;99709.19;5070341;28;20447;-66
2022/08/26 10:08:16;;;;;;;30.02;8.30;;;;;;;26.63;48.92;99734.88;5070580;28;20024;-66
2022/08/26 10:10:44;;;;;;;26.73;8.68;;;;;;;26.72;48.04;99738.97;5070614;28;20047;-70
2022/08/26 10:13:16;;;;;;;28.88;6.30;;;;;;;26.83;48.05;99730.56;5070362;28;20016;-69
2022/08/26 10:16:09;;;;;;;30.35;4.97;;;;;;;26.82;47.61;99707.66;5070515;28;20027;-72
2022/08/26 10:18:39;;;;;;;21.77;4.60;;;;;;;27.11;46.72;99725.81;5070283;28;20016;-68
2022/08/26 10:21:25;;;;;;;20.33;5.32;;;;;;;27.23;45.20;99724.41;5069916;28;20082;-69
2022/08/26 10:23:55;;;;;;;22.08;4.72;;;;;;;26.93;47.25;99678.91;5070318;28;20017;-70
2022/08/26 10:26:37;;;;;;;29.25;5.18;;;;;;;27.30;47.81;99727.66;5070122;28;20032;-70
2022/08/26 10:29:36;;;;;;;26.35;5.55;;;;;;;27.37;47.54;99720.31;5070090;28;20040;-69
2022/08/26 10:32:12;;;;;;;24.30;4.55;;;;;;;27.28;47.02;99706.53;5070209;28;20032;-70
2022/08/26 10:34:38;;;;;;;38.53;7.00;;;;;;;27.47;46.57;99726.94;5069984;28;20449;-67
2022/08/26 10:37:12;;;;;;;50.50;8.90;;;;;;;27.44;45.90;99716.44;5069894;28;20033;-72
2022/08/26 10:39:48;;;;;;;28.35;5.97;;;;;;;27.45;45.02;99718.19;5070070;28;20029;-70
2022/08/26 10:42:51;;;;;;;18.23;5.20;;;;;;;27.47;44.81;99715.47;5070299;28;20028;-66
2022/08/26 10:45:24;;;;;;;20.02;4.78;;;;;;;27.37;44.79;99720.31;5010426;28;20058;-67
2022/08/26 10:47:49;;;;;;;24.35;4.90;;;;;;;27.29;46.03;99724.16;5011859;28;20034;-69
2022/08/26 10:50:15;;;;;;;17.17;4.70;;;;;;;27.16;45.93;99717.66;5011671;28;20100;-69
2022/08/26 10:53:12;;;;;;;28.58;5.30;;;;;;;27.11;46.91;99725.81;5011736;28;20030;-72
2022/08/26 10:55:47;;;;;;;22.30;4.90;;;;;;;27.06;48.29;99729.59;4972396;28;20039;-66
2022/08/26 10:58:27;;;;;;;21.88;4.85;;;;;;;27.02;48.04;99728.88;4972796;28;20038;-68
2022/08/26 11:03:54;;;;;;;19.60;5.18;;;;;;;27.12;46.14;99726.69;4972844;28;20037;-68
2022/08/26 11:06:28;;;;;;;19.90;4.90;;;;;;;27.15;46.59;99717.75;4972398;28;20489;-70
2022/08/26 11:09:06;;;;;;;19.75;5.30;;;;;;;27.25;46.17;99719.94;4972052;28;20436;-70
2022/08/26 11:11:40;;;;;;;22.70;4.47;;;;;;;27.37;47.63;99717.66;4972359;28;20034;-70
2022/08/26 11:14:18;;;;;;;26.77;5.43;;;;;;;27.52;46.14;99713.47;4971779;28;20038;-71
2022/08/26 11:16:46;;;;;;;21.02;4.65;;;;;;;27.62;44.62;99719.22;4967633;28;20107;-66
2022/08/26 11:19:34;;;;;;;20.42;5.07;;;;;;;27.74;45.67;99716.84;4971683;28;20121;-66
2022/08/26 11:22:06;;;;;;;18.38;5.00;;;;;;;27.76;44.58;99716.78;4986089;28;20081;-69
2022/08/26 11:24:38;;;;;;;23.85;6.15;;;;;;;27.88;44.92;99713.56;5007992;28;20034;-72
2022/08/26 11:27:06;;;;;;;23.42;5.35;;;;;;;27.95;43.99;99706.16;5010569;28;20104;-71
2022/08/26 11:29:59;;;;;;;19.88;4.85;;;;;;;27.99;44.38;99709.53;5006265;28;20121;-70
2022/08/26 11:32:46;;;;;;;16.13;4.60;;;;;;;28.06;44.07;99698.59;5041599;28;20033;-69
2022/08/26 11:35:18;;;;;;;19.15;5.07;;;;;;;28.02;44.61;99683.69;5070063;28;20077;-70
2022/08/26 11:37:46;;;;;;;18.05;4.53;;;;;;;28.28;44.44;99707.31;5072111;28;20028;-69
2022/08/26 11:40:16;;;;;;;19.23;5.60;;;;;;;28.32;42.27;99698.25;5054011;28;20029;-70